createdAt,value
2022-10-18T05:56:58.343Z,13.68
2022-10-18T05:59:26.154Z,14.65
2022-10-18T06:01:53.683Z,14.05
2022-10-18T06:04:24.470Z,13.68
2022-10-18T06:07:30.208Z,14.88
2022-10-18T06:10:00.149Z,12.43
2022-10-18T06:12:27.979Z,13.38
2022-10-18T06:14:55.704Z,12.85
2022-10-18T06:17:23.287Z,13.38
2022-10-18T06:19:52.036Z,13.60
2022-10-18T06:22:19.700Z,14.00
2022-10-18T06:24:47.341Z,13.18
2022-10-18T06:27:14.992Z,13.90
2022-10-18T06:29:42.709Z,13.32
2022-10-18T06:32:10.517Z,14.52
2022-10-18T06:34:38.077Z,13.00
2022-10-18T06:37:05.869Z,12.68
2022-10-18T06:39:33.665Z,14.05
2022-10-18T06:42:01.257Z,14.32
2022-10-18T06:44:29.594Z,12.88
2022-10-18T06:46:57.278Z,14.13
2022-10-18T06:49:24.944Z,13.60
2022-10-18T06:51:54.077Z,13.30
2022-10-18T06:54:21.716Z,14.05
2022-10-18T06:56:49.423Z,12.95
2022-10-18T06:59:18.223Z,14.57
2022-10-18T07:01:46.002Z,14.23
2022-10-18T07:04:13.713Z,14.75
2022-10-18T07:06:41.309Z,14.63
2022-10-18T07:09:08.975Z,16.10
2022-10-18T07:11:36.807Z,15.43
2022-10-18T07:14:05.125Z,16.33
2022-10-18T07:16:33.756Z,16.10
2022-10-18T07:19:01.683Z,15.05
2022-10-18T07:21:29.882Z,15.98
2022-10-18T07:23:57.784Z,16.55
2022-10-18T07:26:31.364Z,15.60
2022-10-18T07:29:10.896Z,14.18
2022-10-18T07:31:39.293Z,16.02
2022-10-18T07:34:08.963Z,15.32
2022-10-18T07:36:36.635Z,15.25
2022-10-18T07:39:04.802Z,15.07
2022-10-18T07:41:34.175Z,15.68
2022-10-18T07:44:02.847Z,14.15
2022-10-18T07:46:30.611Z,14.48
2022-10-18T07:49:01.215Z,14.02
2022-10-18T07:51:30.975Z,13.50
2022-10-18T07:53:59.593Z,14.43
2022-10-18T07:56:27.224Z,14.50
2022-10-18T07:58:56.519Z,14.63
2022-10-18T08:01:25.600Z,15.10
2022-10-18T08:03:54.120Z,14.88
2022-10-18T08:06:23.069Z,14.10
2022-10-18T08:08:50.822Z,14.10
2022-10-18T08:11:21.221Z,15.30
2022-10-18T08:13:49.071Z,14.30
2022-10-18T08:16:36.893Z,15.75
2022-10-18T08:19:04.699Z,13.85
2022-10-18T08:21:32.436Z,12.65
2022-10-18T08:24:00.021Z,13.02
2022-10-18T08:26:27.658Z,14.10
2022-10-18T08:29:10.370Z,15.52
2022-10-18T08:31:42.995Z,14.40
2022-10-18T08:34:10.601Z,14.30
2022-10-18T08:36:38.311Z,14.68
2022-10-18T08:39:05.937Z,14.80
2022-10-18T08:42:02.818Z,12.93
2022-10-18T08:44:33.898Z,15.45
2022-10-18T08:47:10.610Z,13.43
2022-10-18T08:49:47.422Z,15.00
2022-10-18T08:52:21.393Z,15.57
2022-10-18T08:54:48.971Z,16.73
2022-10-18T08:57:18.441Z,14.70
2022-10-18T08:59:46.244Z,14.10
2022-10-18T09:02:19.654Z,14.18
2022-10-18T09:04:52.603Z,15.20
2022-10-18T09:07:51.562Z,12.85
2022-10-18T09:10:42.627Z,14.63
2022-10-18T09:13:30.497Z,15.02
2022-10-18T09:16:11.200Z,15.20
2022-10-18T09:19:00.294Z,14.05
2022-10-18T09:21:36.622Z,15.10
2022-10-18T09:24:04.233Z,14.80
2022-10-18T09:26:43.429Z,13.50
2022-10-18T09:29:23.397Z,16.23
2022-10-18T09:32:21.870Z,13.05
2022-10-18T09:35:06.115Z,14.55
2022-10-18T09:37:35.097Z,13.48
2022-10-18T09:40:30.882Z,13.25
2022-10-18T09:43:03.649Z,14.75
2022-10-18T09:45:35.367Z,14.75
2022-10-18T09:48:05.638Z,14.70
2022-10-18T09:50:42.435Z,14.85
2022-10-18T09:53:20.303Z,15.05
2022-10-18T09:56:07.455Z,13.30
2022-10-18T09:58:44.670Z,13.63
2022-10-18T10:01:19.947Z,12.65
2022-10-18T10:03:47.764Z,12.15
2022-10-18T10:06:23.292Z,13.52
2022-10-18T10:09:00.502Z,13.57
2022-10-18T10:11:45.552Z,13.10
2022-10-18T10:17:17.758Z,12.00
2022-10-18T10:20:02.243Z,11.82
2022-10-18T10:22:38.924Z,13.95
2022-10-18T10:25:08.072Z,13.30
2022-10-18T10:27:44.122Z,13.80
2022-10-18T10:30:25.759Z,12.75
2022-10-18T10:32:54.791Z,12.50
2022-10-18T10:35:52.693Z,12.32
2022-10-18T10:38:29.681Z,11.55
2022-10-18T10:40:58.168Z,12.90
2022-10-18T10:43:37.522Z,12.32
2022-10-18T10:46:19.247Z,10.73
2022-10-18T10:48:56.287Z,9.18
2022-10-18T10:51:36.529Z,9.38
2022-10-18T10:54:11.608Z,8.05
2022-10-18T10:57:03.969Z,7.85
2022-10-18T11:02:18.276Z,6.90
2022-10-18T11:04:48.242Z,6.47
2022-10-18T11:07:34.058Z,6.97
2022-10-18T11:10:15.464Z,6.70
2022-10-18T11:12:49.517Z,7.30
2022-10-18T11:18:14.557Z,6.88
2022-10-18T11:20:47.406Z,7.07
2022-10-18T11:23:16.379Z,6.70
2022-10-18T11:25:55.767Z,7.85
2022-10-18T11:28:50.658Z,6.95
2022-10-18T11:31:23.923Z,6.75
2022-10-18T11:34:10.609Z,7.00
2022-10-18T11:37:27.616Z,6.80
2022-10-18T11:39:59.689Z,6.95
2022-10-18T11:42:40.200Z,6.72
2022-10-18T11:45:16.775Z,7.28
2022-10-18T11:47:53.567Z,7.28
2022-10-18T11:50:41.056Z,6.85
2022-10-18T11:53:11.305Z,7.45
2022-10-18T11:56:16.697Z,7.75
2022-10-18T11:58:55.494Z,8.95
2022-10-18T12:01:45.674Z,8.32
2022-10-18T12:04:22.964Z,9.90
2022-10-18T12:06:54.267Z,8.88
2022-10-18T12:09:44.211Z,9.68
2022-10-18T12:12:18.296Z,10.45
2022-10-18T12:15:05.426Z,11.00
2022-10-18T12:17:46.176Z,10.13
2022-10-18T12:20:29.714Z,12.13
2022-10-18T12:23:18.657Z,11.05
2022-10-18T12:25:51.253Z,11.85
2022-10-18T12:28:56.096Z,11.95
2022-10-18T12:31:50.401Z,12.23
2022-10-18T12:34:36.405Z,11.93
2022-10-18T12:37:27.594Z,12.75
2022-10-18T12:40:21.779Z,11.50
2022-10-18T12:42:51.872Z,13.35
2022-10-18T12:45:27.344Z,14.90
2022-10-18T12:47:59.733Z,14.80
2022-10-18T12:50:35.219Z,13.45
2022-10-18T12:53:24.689Z,13.68
2022-10-18T12:55:53.960Z,14.98
2022-10-18T12:58:23.277Z,14.98
2022-10-18T13:00:51.996Z,14.57
2022-10-18T13:03:25.757Z,14.60
2022-10-18T13:05:57.929Z,14.30
2022-10-18T13:08:31.829Z,14.40
2022-10-18T13:11:08.261Z,15.00
2022-10-18T13:14:08.541Z,15.55
2022-10-18T13:16:57.273Z,12.75
2022-10-18T13:19:39.745Z,14.40
2022-10-18T13:22:44.910Z,13.70
2022-10-18T13:25:37.419Z,17.05
2022-10-18T13:28:31.578Z,14.52
2022-10-18T13:31:08.990Z,13.80
2022-10-18T13:33:39.616Z,14.52
2022-10-18T13:36:26.178Z,15.15
2022-10-18T13:38:55.678Z,14.43
2022-10-18T13:41:56.505Z,14.38
2022-10-18T13:44:43.645Z,15.38
2022-10-18T13:47:32.250Z,16.67
2022-10-18T13:53:29.527Z,15.63
2022-10-18T13:56:00.445Z,15.57
2022-10-18T13:58:53.851Z,15.90
2022-10-18T14:01:52.771Z,15.55
2022-10-18T14:04:37.075Z,18.55
2022-10-18T14:07:06.737Z,16.58
2022-10-18T14:09:49.978Z,18.17
2022-10-18T14:12:33.737Z,16.88
2022-10-18T14:15:18.336Z,18.35
2022-10-18T14:17:55.989Z,17.10
2022-10-18T14:20:29.873Z,20.08
2022-10-18T14:23:07.168Z,17.40
2022-10-18T14:25:37.765Z,18.38
2022-10-18T14:28:16.420Z,18.02
2022-10-18T14:31:06.456Z,20.08
2022-10-18T14:33:43.365Z,18.85
2022-10-18T14:36:20.815Z,17.30
2022-10-18T14:39:01.882Z,18.55
2022-10-18T14:41:38.638Z,18.58
2022-10-18T14:44:27.537Z,18.10
2022-10-18T14:47:14.494Z,18.02
2022-10-18T14:49:46.820Z,18.67
2022-10-18T14:52:18.637Z,19.95
2022-10-18T14:54:46.802Z,20.98
2022-10-18T14:57:22.762Z,18.73
2022-10-18T14:59:58.526Z,18.35
2022-10-18T15:02:29.410Z,18.15
2022-10-18T15:05:19.929Z,17.95
2022-10-18T15:07:49.206Z,18.15
2022-10-18T15:10:43.529Z,18.42
2022-10-18T15:13:13.628Z,17.10
2022-10-18T15:15:42.041Z,16.98
2022-10-18T15:18:35.805Z,17.08
2022-10-18T15:21:24.237Z,18.33
2022-10-18T15:23:52.447Z,16.63
2022-10-18T15:26:24.886Z,15.63
2022-10-18T15:28:56.566Z,15.88
2022-10-18T15:31:35.008Z,15.68
2022-10-18T15:34:10.832Z,14.00
2022-10-18T15:36:39.249Z,15.23
2022-10-18T15:39:14.832Z,15.68
2022-10-18T15:42:28.579Z,15.45
2022-10-18T15:44:56.311Z,17.00
2022-10-18T15:47:25.118Z,18.17
2022-10-18T15:49:58.541Z,18.90
2022-10-18T15:52:36.659Z,18.48
2022-10-18T15:55:34.431Z,18.45
2022-10-18T15:58:06.885Z,16.63
2022-10-18T16:00:34.897Z,20.85
2022-10-18T16:03:11.379Z,20.35
2022-10-18T16:05:40.313Z,20.15
2022-10-18T16:08:19.310Z,20.83
2022-10-18T16:10:55.377Z,17.35
2022-10-18T16:13:23.398Z,16.85
2022-10-18T16:16:02.134Z,16.58
2022-10-18T16:18:34.528Z,21.02
2022-10-18T16:21:07.666Z,16.83
2022-10-18T16:23:44.458Z,16.88
2022-10-18T16:26:18.052Z,17.70
2022-10-18T16:28:50.649Z,17.80
2022-10-18T16:31:21.458Z,18.23
2022-10-18T16:33:50.522Z,18.63
2022-10-18T16:36:23.192Z,18.67
2022-10-18T16:38:55.297Z,19.13
2022-10-18T16:41:24.151Z,18.27
2022-10-18T16:43:52.215Z,19.65
2022-10-18T16:46:22.728Z,18.17
2022-10-18T16:48:51.960Z,19.90
2022-10-18T16:51:20.302Z,18.83
2022-10-18T16:53:49.017Z,18.02
2022-10-18T16:56:19.947Z,21.30
2022-10-18T16:58:48.400Z,19.77
2022-10-18T17:01:19.197Z,21.25
2022-10-18T17:03:47.512Z,20.05
2022-10-18T17:06:27.385Z,21.73
2022-10-18T17:08:57.011Z,20.48
2022-10-18T17:11:27.058Z,21.85
2022-10-18T17:13:55.181Z,21.75
2022-10-18T17:16:31.508Z,20.73
2022-10-18T17:19:02.415Z,19.75
2022-10-18T17:21:31.534Z,21.35
2022-10-18T17:24:01.322Z,20.65
2022-10-18T17:26:30.089Z,21.92
2022-10-18T17:29:01.393Z,20.08
2022-10-18T17:31:31.027Z,20.73
2022-10-18T17:34:01.741Z,21.30
2022-10-18T17:36:31.503Z,22.15
2022-10-18T17:38:59.554Z,21.85
2022-10-18T17:41:27.694Z,20.80
2022-10-18T17:43:55.539Z,21.58
2022-10-18T17:46:23.868Z,22.15
2022-10-18T17:48:51.737Z,21.80
2022-10-18T17:51:19.806Z,20.95
2022-10-18T17:53:47.546Z,21.35
2022-10-18T17:56:16.256Z,21.70
2022-10-18T17:58:44.033Z,21.52
2022-10-18T18:01:21.255Z,22.77
2022-10-18T18:03:49.327Z,21.73
2022-10-18T18:06:22.450Z,22.20
2022-10-18T18:08:50.674Z,22.10
2022-10-18T18:11:18.639Z,23.20
2022-10-18T18:13:46.520Z,20.25
2022-10-18T18:16:20.415Z,20.58
2022-10-18T18:18:50.900Z,22.80
2022-10-18T18:21:20.331Z,21.55
2022-10-18T18:23:48.808Z,22.00
2022-10-18T18:26:18.655Z,21.13
2022-10-18T18:28:47.020Z,21.50
2022-10-18T18:31:25.880Z,21.48
2022-10-18T18:33:55.803Z,22.40
2022-10-18T18:36:29.032Z,22.58
2022-10-18T18:38:57.869Z,23.47
2022-10-18T18:41:27.512Z,23.80
2022-10-18T18:44:04.277Z,24.63
2022-10-18T18:46:37.022Z,25.00
2022-10-18T18:49:06.380Z,21.48
2022-10-18T18:51:37.466Z,21.55
2022-10-18T18:54:06.937Z,23.40
2022-10-18T18:56:34.880Z,22.85
2022-10-18T18:59:03.463Z,23.23
2022-10-18T19:01:34.772Z,21.77
2022-10-18T19:04:03.820Z,23.52
2022-10-18T19:06:37.492Z,21.80
2022-10-18T19:09:18.491Z,21.58
2022-10-18T19:11:47.904Z,23.35
2022-10-18T19:14:16.869Z,22.85
2022-10-18T19:16:50.009Z,22.27
2022-10-18T19:19:25.504Z,22.63
2022-10-18T19:21:59.090Z,23.58
2022-10-18T19:24:28.990Z,22.67
2022-10-18T19:26:59.459Z,24.70
2022-10-18T19:29:30.298Z,24.42
2022-10-18T19:32:02.309Z,23.95
2022-10-18T19:34:31.921Z,25.15
2022-10-18T19:37:03.337Z,23.80
2022-10-18T19:39:35.107Z,26.58
2022-10-18T19:42:07.439Z,25.42
2022-10-18T19:44:36.704Z,25.40
2022-10-18T19:47:06.175Z,25.10
2022-10-18T19:49:40.851Z,23.52
2022-10-18T19:52:16.164Z,24.30
2022-10-18T19:54:45.232Z,24.35
2022-10-18T19:57:13.190Z,23.35
2022-10-18T20:02:15.336Z,23.73
2022-10-18T20:04:43.240Z,24.25
2022-10-18T20:07:11.214Z,23.35
2022-10-18T20:09:40.068Z,23.10
2022-10-18T20:12:07.884Z,23.45
2022-10-18T20:14:35.816Z,23.33
2022-10-18T20:17:04.214Z,25.38
2022-10-18T20:19:32.282Z,23.20
2022-10-18T20:22:00.127Z,23.58
2022-10-18T20:24:27.955Z,24.08
2022-10-18T20:26:55.860Z,25.20
2022-10-18T20:29:25.567Z,26.00
2022-10-18T20:31:55.756Z,24.92
2022-10-18T20:34:26.210Z,25.48
2022-10-18T20:36:54.872Z,24.48
2022-10-18T20:39:22.985Z,24.80
2022-10-18T20:41:50.962Z,23.70
2022-10-18T20:44:23.424Z,23.75
2022-10-18T20:46:51.811Z,24.90
2022-10-18T20:49:19.879Z,24.48
2022-10-18T20:51:47.795Z,24.48
2022-10-18T20:54:15.599Z,23.98
2022-10-18T20:56:43.799Z,24.58
2022-10-18T20:59:12.356Z,24.42
2022-10-18T21:01:40.608Z,23.75
2022-10-18T21:04:10.243Z,24.67
2022-10-18T21:06:41.137Z,24.52
2022-10-18T21:09:18.138Z,22.27
2022-10-18T21:11:48.318Z,23.52
2022-10-18T21:14:18.801Z,24.45
2022-10-18T21:16:47.314Z,24.65
2022-10-18T21:19:21.081Z,23.95
2022-10-18T21:21:51.036Z,25.25
2022-10-18T21:24:20.088Z,22.92
2022-10-18T21:26:48.465Z,23.98
2022-10-18T21:29:21.634Z,24.05
2022-10-18T21:31:54.248Z,23.90
2022-10-18T21:34:22.212Z,23.73
2022-10-18T21:36:50.015Z,23.80
2022-10-18T21:39:21.066Z,23.42
2022-10-18T21:41:49.829Z,22.98
2022-10-18T21:44:18.078Z,23.10
2022-10-18T21:46:46.959Z,23.48
2022-10-18T21:49:15.806Z,21.92
2022-10-18T21:51:43.711Z,22.00
2022-10-18T21:54:14.346Z,22.88
2022-10-18T21:56:42.550Z,24.48
2022-10-18T21:59:13.682Z,20.45
2022-10-18T22:01:43.718Z,21.25
2022-10-18T22:04:21.802Z,22.00
2022-10-18T22:06:50.237Z,20.67
2022-10-18T22:09:18.194Z,21.00
2022-10-18T22:11:49.832Z,22.38
2022-10-18T22:14:17.648Z,22.20
2022-10-18T22:16:45.398Z,21.05
2022-10-18T22:19:13.598Z,20.80
2022-10-18T22:21:41.381Z,20.63
2022-10-18T22:24:10.246Z,20.42
2022-10-18T22:26:42.801Z,20.65
2022-10-18T22:29:17.061Z,22.13
2022-10-18T22:31:47.370Z,20.92
2022-10-18T22:34:19.406Z,23.35
2022-10-18T22:36:47.292Z,20.15
2022-10-18T22:39:16.911Z,20.73
2022-10-18T22:41:45.268Z,24.08
2022-10-18T22:44:14.569Z,20.10
2022-10-18T22:46:42.861Z,21.25
2022-10-18T22:49:11.754Z,20.83
2022-10-18T22:51:40.285Z,21.73
2022-10-18T22:54:09.634Z,20.05
2022-10-18T22:56:37.487Z,23.48
2022-10-18T22:59:05.264Z,21.67
2022-10-18T23:01:32.971Z,21.08
2022-10-18T23:04:01.728Z,20.77
2022-10-18T23:06:33.123Z,20.98
2022-10-18T23:09:05.235Z,22.60
2022-10-18T23:11:33.994Z,21.17
2022-10-18T23:14:03.887Z,22.27
2022-10-18T23:16:32.041Z,21.50
2022-10-18T23:19:00.178Z,20.38
2022-10-18T23:21:28.901Z,22.95
2022-10-18T23:23:57.735Z,20.95
2022-10-18T23:26:27.834Z,21.10
2022-10-18T23:28:56.205Z,19.88
2022-10-18T23:31:30.055Z,21.73
2022-10-18T23:34:00.281Z,21.17
2022-10-18T23:36:28.685Z,20.48
2022-10-18T23:38:56.974Z,20.25
2022-10-18T23:41:26.149Z,20.13
2022-10-18T23:43:53.906Z,20.75
2022-10-18T23:46:22.305Z,21.73
2022-10-18T23:48:50.171Z,21.73
2022-10-18T23:51:18.586Z,22.55
2022-10-18T23:53:46.734Z,21.52
2022-10-18T23:56:16.277Z,22.30
2022-10-18T23:58:45.086Z,20.02
